Time;durP1;ratioP1;P1;durP2;ratioP2;P2;SDS_P1;SDS_P2;PMS_P1;PMS_P2;Temp;Humidity;BMP_temperature;BMP_pressure;BME280_temperature;BME280_humidity;BME280_pressure;Samples;Min_cycle;Max_cycle;Signal;HPM_P1;HPM_P2
2021/10/03 00:01:05;;;;;;;23.33;13.02;;;10.40;99.90;;;;;;5067164;28;20160;-73
2021/10/03 00:03:35;;;;;;;23.92;12.02;;;10.40;99.90;;;;;;5060118;28;20209;-73
2021/10/03 00:06:02;;;;;;;22.83;12.85;;;10.40;99.90;;;;;;5048231;28;20212;-73
2021/10/03 00:08:29;;;;;;;23.05;13.43;;;10.40;99.90;;;;;;5046489;28;20283;-73
2021/10/03 00:10:56;;;;;;;19.33;11.63;;;10.30;99.90;;;;;;5047006;28;20153;-73
2021/10/03 00:13:24;;;;;;;24.10;12.57;;;10.30;99.90;;;;;;5048038;28;20196;-73
2021/10/03 00:15:51;;;;;;;20.95;12.38;;;10.20;99.90;;;;;;5048011;28;20177;-73
2021/10/03 00:18:17;;;;;;;21.88;12.32;;;10.10;99.90;;;;;;5047961;28;20169;-73
2021/10/03 00:20:43;;;;;;;25.27;13.20;;;10.10;99.90;;;;;;5030060;28;20169;-71
2021/10/03 00:23:10;;;;;;;22.00;12.05;;;10.10;99.90;;;;;;5047725;28;20172;-71
2021/10/03 00:25:37;;;;;;;22.75;12.07;;;10.00;99.90;;;;;;5047831;28;20181;-71
2021/10/03 00:28:04;;;;;;;28.00;12.65;;;10.10;99.90;;;;;;5029793;28;20212;-72
2021/10/03 00:30:30;;;;;;;21.80;12.75;;;10.20;99.90;;;;;;5047789;28;20240;-71
2021/10/03 00:32:56;;;;;;;26.42;13.60;;;10.20;99.90;;;;;;5046355;28;20166;-71
2021/10/03 00:35:22;;;;;;;22.58;11.38;;;10.10;99.90;;;;;;5047654;28;20272;-71
2021/10/03 00:37:48;;;;;;;23.85;12.85;;;10.00;99.90;;;;;;5047727;28;20161;-71
2021/10/03 00:40:15;;;;;;;24.75;12.20;;;9.90;99.90;;;;;;5047698;28;20243;-71
2021/10/03 00:42:44;;;;;;;19.90;12.32;;;10.00;99.90;;;;;;5032371;28;20477;-71
2021/10/03 00:45:12;;;;;;;21.70;11.68;;;10.00;99.90;;;;;;5049696;28;20208;-73
2021/10/03 00:47:39;;;;;;;21.77;11.57;;;10.00;99.90;;;;;;5067559;28;20185;-73
2021/10/03 00:50:07;;;;;;;18.17;10.65;;;9.90;99.90;;;;;;5067704;28;20177;-73
2021/10/03 00:52:33;;;;;;;22.15;12.82;;;9.80;99.90;;;;;;5067338;28;20705;-73
2021/10/03 00:54:59;;;;;;;22.55;13.80;;;9.80;99.90;;;;;;5067426;28;20208;-73
2021/10/03 00:57:26;;;;;;;25.60;13.15;;;9.80;99.90;;;;;;5067548;28;20172;-73
2021/10/03 00:59:53;;;;;;;27.67;13.52;;;9.80;99.90;;;;;;5067631;28;20214;-73
2021/10/03 01:02:19;;;;;;;21.73;12.13;;;9.80;99.90;;;;;;5067801;28;20187;-73
2021/10/03 01:04:45;;;;;;;24.20;12.85;;;9.80;99.90;;;;;;5049798;28;20242;-72
2021/10/03 01:07:11;;;;;;;24.05;12.98;;;9.80;99.90;;;;;;5067740;28;20215;-72
2021/10/03 01:09:37;;;;;;;22.58;11.65;;;9.80;99.90;;;;;;5067819;28;20157;-72
2021/10/03 01:12:04;;;;;;;23.92;13.63;;;9.70;99.90;;;;;;5069263;28;20176;-72
2021/10/03 01:14:30;;;;;;;27.92;13.38;;;9.50;99.90;;;;;;5071889;28;20271;-73
2021/10/03 01:16:55;;;;;;;22.63;12.82;;;9.50;99.90;;;;;;5072009;28;20171;-74
2021/10/03 01:19:21;;;;;;;29.20;13.45;;;9.50;99.90;;;;;;5071910;28;20171;-73
2021/10/03 01:21:48;;;;;;;26.80;13.48;;;9.40;99.90;;;;;;5071985;28;20157;-73
2021/10/03 01:24:15;;;;;;;23.92;14.02;;;9.30;99.90;;;;;;5071585;28;20199;-73
2021/10/03 01:26:42;;;;;;;23.98;12.52;;;9.30;99.90;;;;;;5071666;28;20202;-73
2021/10/03 01:29:09;;;;;;;20.77;13.23;;;9.40;99.90;;;;;;5071558;28;20156;-73
2021/10/03 01:31:35;;;;;;;27.05;14.35;;;9.50;99.90;;;;;;5071092;28;20187;-73
2021/10/03 01:34:02;;;;;;;29.23;12.45;;;9.50;99.90;;;;;;5070863;28;20212;-73
2021/10/03 01:36:28;;;;;;;24.67;13.48;;;9.50;99.90;;;;;;5070963;28;20248;-73
2021/10/03 01:38:55;;;;;;;27.95;14.50;;;9.40;99.90;;;;;;5070962;28;20622;-73
2021/10/03 01:41:21;;;;;;;28.75;14.50;;;9.40;99.90;;;;;;5070784;28;20247;-73
2021/10/03 01:43:47;;;;;;;28.75;15.15;;;9.30;99.90;;;;;;5070753;28;20196;-73
2021/10/03 01:46:14;;;;;;;24.75;14.25;;;9.40;99.90;;;;;;5070758;28;20188;-73
2021/10/03 01:48:43;;;;;;;29.25;14.23;;;9.40;99.90;;;;;;5070809;28;20207;-73
2021/10/03 01:51:11;;;;;;;26.30;14.15;;;9.50;99.90;;;;;;5070743;28;20161;-73
2021/10/03 01:53:39;;;;;;;30.65;14.65;;;9.40;99.90;;;;;;5070395;28;20220;-73
2021/10/03 01:56:07;;;;;;;30.75;15.38;;;9.40;99.90;;;;;;5070559;28;20232;-73
2021/10/03 01:58:37;;;;;;;29.98;15.00;;;9.40;99.90;;;;;;5070507;28;20236;-74
2021/10/03 02:01:08;;;;;;;28.00;14.43;;;9.40;99.90;;;;;;5052427;28;20165;-73
2021/10/03 02:03:34;;;;;;;32.20;15.20;;;9.30;99.90;;;;;;5070357;28;20185;-73
2021/10/03 02:06:00;;;;;;;26.23;14.45;;;9.30;99.90;;;;;;5070481;28;20153;-73
2021/10/03 02:08:26;;;;;;;26.85;14.55;;;9.30;99.90;;;;;;5070382;28;20250;-72
2021/10/03 02:10:53;;;;;;;31.13;15.32;;;9.30;99.90;;;;;;5052410;28;20157;-73
2021/10/03 02:13:21;;;;;;;29.63;15.60;;;9.40;99.90;;;;;;5070335;28;20188;-73
2021/10/03 02:15:48;;;;;;;31.25;15.15;;;9.40;99.90;;;;;;5068427;28;20200;-72
2021/10/03 02:18:17;;;;;;;29.85;16.52;;;9.40;99.90;;;;;;5070253;28;20183;-72
2021/10/03 02:20:45;;;;;;;33.45;15.75;;;9.30;99.90;;;;;;5070199;28;20153;-72
2021/10/03 02:23:13;;;;;;;36.55;16.45;;;9.30;99.90;;;;;;5069259;28;20157;-72
2021/10/03 02:25:47;;;;;;;32.78;16.45;;;9.30;99.90;;;;;;5070003;28;20196;-72
2021/10/03 02:28:17;;;;;;;32.03;15.60;;;9.30;99.90;;;;;;5070602;28;20263;-72
2021/10/03 02:30:44;;;;;;;35.95;16.50;;;9.30;99.90;;;;;;5070433;28;20240;-72
2021/10/03 02:33:10;;;;;;;30.38;14.30;;;9.20;99.90;;;;;;5070403;28;20176;-72
2021/10/03 02:35:40;;;;;;;28.55;15.13;;;9.20;99.90;;;;;;5051863;28;20223;-72
2021/10/03 02:38:11;;;;;;;27.35;14.75;;;9.20;99.90;;;;;;5069886;28;20153;-72
2021/10/03 02:40:40;;;;;;;34.20;14.45;;;9.20;99.90;;;;;;5069823;28;20161;-72
2021/10/03 02:43:08;;;;;;;27.35;15.02;;;9.10;99.90;;;;;;5070058;28;20271;-74
2021/10/03 02:45:41;;;;;;;27.38;15.05;;;9.00;99.90;;;;;;5069877;28;20199;-72
2021/10/03 02:48:07;;;;;;;31.77;14.75;;;8.90;99.90;;;;;;5069670;28;20279;-72
2021/10/03 02:50:34;;;;;;;29.17;15.98;;;9.00;99.90;;;;;;5069675;28;20645;-71
2021/10/03 02:53:02;;;;;;;30.73;14.38;;;9.00;99.90;;;;;;5069478;28;20224;-72
2021/10/03 02:55:29;;;;;;;31.50;15.75;;;9.00;99.90;;;;;;5069740;28;20189;-73
2021/10/03 02:57:55;;;;;;;28.48;15.40;;;9.10;99.90;;;;;;5069810;28;20203;-73
2021/10/03 03:00:20;;;;;;;34.15;15.18;;;9.10;99.90;;;;;;5069490;28;20157;-72
2021/10/03 03:02:46;;;;;;;30.05;15.77;;;9.10;99.90;;;;;;5069636;28;20199;-73
2021/10/03 03:05:13;;;;;;;29.33;16.20;;;9.10;99.90;;;;;;5069644;28;20193;-73
2021/10/03 03:07:39;;;;;;;27.98;15.10;;;9.10;99.90;;;;;;5069531;28;20243;-75
2021/10/03 03:10:07;;;;;;;25.65;13.93;;;9.00;99.90;;;;;;5069406;28;20153;-73
2021/10/03 03:12:33;;;;;;;31.00;16.13;;;9.00;99.90;;;;;;5069399;28;20153;-72
2021/10/03 03:14:59;;;;;;;27.92;14.70;;;9.00;99.90;;;;;;5051453;28;20219;-73
2021/10/03 03:17:25;;;;;;;26.65;15.73;;;9.10;99.90;;;;;;5069494;28;20159;-72
2021/10/03 03:19:51;;;;;;;27.58;13.77;;;9.10;99.90;;;;;;5069146;28;20169;-73
2021/10/03 03:22:17;;;;;;;34.38;15.70;;;9.10;99.90;;;;;;5069131;28;20167;-74
2021/10/03 03:24:43;;;;;;;36.10;14.30;;;9.00;99.90;;;;;;5069075;28;20196;-72
2021/10/03 03:27:10;;;;;;;28.52;15.93;;;8.90;99.90;;;;;;5050964;28;20215;-72
2021/10/03 03:29:36;;;;;;;27.95;13.68;;;8.90;99.90;;;;;;5069132;28;20198;-73
2021/10/03 03:32:03;;;;;;;27.20;13.77;;;9.00;99.90;;;;;;5069092;28;20255;-72
2021/10/03 03:34:30;;;;;;;29.60;15.27;;;9.00;99.90;;;;;;5068671;28;20207;-71
2021/10/03 03:36:56;;;;;;;24.17;13.27;;;9.00;99.90;;;;;;5069169;28;20294;-72
2021/10/03 03:39:22;;;;;;;26.40;13.85;;;9.10;99.90;;;;;;5068555;28;20550;-72
2021/10/03 03:41:49;;;;;;;28.73;15.80;;;9.00;99.90;;;;;;5068413;28;20161;-73
2021/10/03 03:44:15;;;;;;;30.52;16.17;;;9.00;99.90;;;;;;5068269;28;20287;-72
2021/10/03 03:46:41;;;;;;;28.85;16.08;;;8.80;99.90;;;;;;5068137;28;20215;-72
2021/10/03 03:49:07;;;;;;;32.58;17.20;;;8.70;99.90;;;;;;5050225;28;20175;-71
2021/10/03 03:51:33;;;;;;;27.27;15.85;;;8.70;99.90;;;;;;5067843;28;20180;-72
2021/10/03 03:53:59;;;;;;;28.70;14.82;;;8.60;99.90;;;;;;5068053;28;20161;-73
2021/10/03 03:56:25;;;;;;;31.17;16.08;;;8.50;99.90;;;;;;5068116;28;20157;-73
2021/10/03 03:58:51;;;;;;;33.17;16.25;;;8.50;99.90;;;;;;5068110;28;20302;-74
2021/10/03 04:01:18;;;;;;;33.75;16.17;;;8.40;99.90;;;;;;5068087;28;20263;-73
2021/10/03 04:03:44;;;;;;;30.60;15.85;;;8.40;99.90;;;;;;5068059;28;20169;-72
2021/10/03 04:06:10;;;;;;;27.92;14.63;;;8.50;99.90;;;;;;5067953;28;20199;-72
2021/10/03 04:08:35;;;;;;;42.05;17.70;;;8.60;99.90;;;;;;5067918;28;20177;-72
2021/10/03 04:11:01;;;;;;;32.35;16.88;;;8.70;99.90;;;;;;5067762;28;20184;-72
2021/10/03 04:13:27;;;;;;;29.58;15.98;;;8.70;99.90;;;;;;5067758;28;20153;-71
2021/10/03 04:15:53;;;;;;;33.33;16.55;;;8.70;99.90;;;;;;5067803;28;20268;-73
2021/10/03 04:18:19;;;;;;;33.70;16.58;;;8.60;99.90;;;;;;5067828;28;20565;-73
2021/10/03 04:20:45;;;;;;;31.13;15.35;;;8.60;99.90;;;;;;5067702;28;20157;-73
2021/10/03 04:23:11;;;;;;;29.33;16.60;;;8.60;99.90;;;;;;5067677;28;20165;-73
2021/10/03 04:25:37;;;;;;;28.63;14.05;;;8.40;99.90;;;;;;5067600;28;20248;-73
2021/10/03 04:28:03;;;;;;;29.67;14.02;;;8.40;99.90;;;;;;5067536;28;20191;-73
2021/10/03 04:30:29;;;;;;;33.83;17.00;;;8.40;99.90;;;;;;5049621;28;20233;-73
2021/10/03 04:32:55;;;;;;;25.25;15.02;;;8.50;99.90;;;;;;5067528;28;20161;-73
2021/10/03 04:35:21;;;;;;;27.90;16.10;;;8.40;99.90;;;;;;5067488;28;20210;-73
2021/10/03 04:37:47;;;;;;;27.67;14.35;;;8.50;99.90;;;;;;5067552;28;20216;-73
2021/10/03 04:40:13;;;;;;;33.05;15.43;;;8.40;99.90;;;;;;5049468;28;20175;-73
2021/10/03 04:42:39;;;;;;;29.02;15.57;;;8.50;99.90;;;;;;5067401;28;20180;-73
2021/10/03 04:45:06;;;;;;;26.25;14.30;;;8.60;99.90;;;;;;5067378;28;20650;-71
2021/10/03 04:47:32;;;;;;;29.40;15.00;;;8.50;99.90;;;;;;5066910;28;20188;-72
2021/10/03 04:49:59;;;;;;;30.67;14.68;;;8.60;99.90;;;;;;5067279;28;20168;-72
2021/10/03 04:52:25;;;;;;;27.67;14.15;;;8.60;99.90;;;;;;5067091;28;20208;-72
2021/10/03 04:54:52;;;;;;;37.45;16.88;;;8.40;99.90;;;;;;5067207;28;20215;-72
2021/10/03 04:57:19;;;;;;;34.95;16.35;;;8.50;99.90;;;;;;5067226;28;20156;-72
2021/10/03 04:59:45;;;;;;;35.28;16.05;;;8.50;99.90;;;;;;5067137;28;20175;-73
2021/10/03 05:02:12;;;;;;;31.42;15.80;;;8.50;99.90;;;;;;5067155;28;20168;-72
2021/10/03 05:04:38;;;;;;;30.20;16.48;;;8.60;99.90;;;;;;5067061;28;20210;-72
2021/10/03 05:07:05;;;;;;;33.63;16.20;;;8.80;99.90;;;;;;5067146;28;20188;-73
2021/10/03 05:09:31;;;;;;;35.72;16.80;;;8.80;99.90;;;;;;5067155;28;20159;-73
2021/10/03 05:11:57;;;;;;;30.40;15.23;;;8.80;99.90;;;;;;5067096;28;20153;-73
2021/10/03 05:14:23;;;;;;;42.40;16.77;;;8.90;99.90;;;;;;5067068;28;20191;-73
2021/10/03 05:16:48;;;;;;;44.72;17.77;;;9.00;99.90;;;;;;5067036;28;20157;-73
2021/10/03 05:19:14;;;;;;;40.30;17.08;;;9.10;99.90;;;;;;5067097;28;20196;-73
2021/10/03 05:21:40;;;;;;;32.70;16.38;;;9.00;99.90;;;;;;5067089;28;20235;-72
2021/10/03 05:24:06;;;;;;;35.03;17.25;;;9.00;99.90;;;;;;5048812;28;20207;-72
2021/10/03 05:26:32;;;;;;;35.95;17.08;;;9.00;99.90;;;;;;5066978;28;20289;-72
2021/10/03 05:28:58;;;;;;;44.95;18.70;;;9.00;99.90;;;;;;5067054;28;20157;-73
2021/10/03 05:31:24;;;;;;;38.75;17.77;;;9.00;99.90;;;;;;5066998;28;20161;-73
2021/10/03 05:33:51;;;;;;;44.47;18.17;;;9.00;99.90;;;;;;5066869;28;20161;-72
2021/10/03 05:36:17;;;;;;;39.97;17.05;;;9.00;99.90;;;;;;5066770;28;20175;-72
2021/10/03 05:38:43;;;;;;;41.35;18.40;;;9.00;99.90;;;;;;5048894;28;20169;-72
2021/10/03 05:41:10;;;;;;;46.42;18.00;;;9.10;99.90;;;;;;5048896;28;20229;-73
2021/10/03 05:43:38;;;;;;;52.20;18.05;;;9.30;99.90;;;;;;5066807;28;20157;-73
2021/10/03 05:46:08;;;;;;;38.05;15.98;;;9.50;99.90;;;;;;5048807;28;20245;-73
2021/10/03 05:48:35;;;;;;;40.88;17.75;;;9.60;99.90;;;;;;5066795;28;20342;-72
2021/10/03 05:51:02;;;;;;;33.72;16.23;;;9.70;99.90;;;;;;5067483;28;20153;-72
2021/10/03 05:53:28;;;;;;;36.47;17.48;;;9.60;99.90;;;;;;5067517;28;20212;-74
2021/10/03 05:55:54;;;;;;;32.67;17.05;;;9.70;99.90;;;;;;5061497;28;20266;-72
2021/10/03 05:58:21;;;;;;;36.55;16.60;;;9.60;99.90;;;;;;5053724;28;20166;-72
2021/10/03 06:00:47;;;;;;;36.72;17.02;;;9.60;99.90;;;;;;5066586;28;20161;-74
2021/10/03 06:03:13;;;;;;;39.80;16.77;;;9.60;99.90;;;;;;5051168;28;20164;-72
2021/10/03 06:05:39;;;;;;;34.78;17.17;;;9.70;99.90;;;;;;5050575;28;20216;-72
2021/10/03 06:08:06;;;;;;;32.63;15.65;;;9.70;99.90;;;;;;5051102;28;20200;-72
2021/10/03 06:10:32;;;;;;;38.13;17.13;;;9.70;99.90;;;;;;5051321;28;20619;-72
2021/10/03 06:12:58;;;;;;;43.17;16.58;;;9.70;99.90;;;;;;5044671;28;20216;-72
2021/10/03 06:15:24;;;;;;;32.22;15.48;;;9.80;99.90;;;;;;5070744;28;20207;-72
2021/10/03 06:17:50;;;;;;;38.53;16.08;;;10.10;99.90;;;;;;5070947;28;20160;-74
2021/10/03 06:20:16;;;;;;;40.22;16.27;;;10.10;99.90;;;;;;5052640;28;20246;-74
2021/10/03 06:22:45;;;;;;;36.85;15.90;;;10.30;99.90;;;;;;5070707;28;20161;-72
2021/10/03 06:25:14;;;;;;;38.40;16.13;;;10.10;99.90;;;;;;5070457;28;20192;-72
2021/10/03 06:27:40;;;;;;;33.03;16.38;;;10.00;99.90;;;;;;5070212;28;20214;-73
2021/10/03 06:30:07;;;;;;;36.28;16.90;;;10.10;99.90;;;;;;5058685;28;20172;-73
2021/10/03 06:32:33;;;;;;;29.58;14.65;;;10.20;99.90;;;;;;5032140;28;20170;-73
2021/10/03 06:34:59;;;;;;;33.22;15.07;;;10.40;99.90;;;;;;5050243;28;20197;-73
2021/10/03 06:37:25;;;;;;;28.55;14.65;;;10.60;99.90;;;;;;5049906;28;20169;-73
2021/10/03 06:39:51;;;;;;;29.92;14.93;;;10.40;99.90;;;;;;5049566;28;20221;-73
2021/10/03 06:42:17;;;;;;;27.20;13.35;;;10.60;99.90;;;;;;5031740;28;20165;-72
2021/10/03 06:44:43;;;;;;;30.98;13.80;;;10.90;99.90;;;;;;5049479;28;20534;-72
2021/10/03 06:47:11;;;;;;;25.58;13.38;;;11.00;99.90;;;;;;5048130;28;20272;-72
2021/10/03 06:49:42;;;;;;;28.17;14.20;;;11.20;99.90;;;;;;5049492;28;20157;-72
2021/10/03 06:52:12;;;;;;;29.38;13.60;;;11.10;99.90;;;;;;5049003;28;20746;-73
2021/10/03 06:54:38;;;;;;;24.55;13.30;;;11.10;99.90;;;;;;5049257;28;20190;-72
2021/10/03 06:57:05;;;;;;;28.42;12.30;;;11.50;99.90;;;;;;5049214;28;20602;-72
2021/10/03 06:59:31;;;;;;;20.35;11.82;;;11.70;99.90;;;;;;5049203;28;20237;-72
2021/10/03 07:02:22;;;;;;;22.50;12.10;;;11.50;99.90;;;;;;5049191;28;20244;-73
2021/10/03 07:04:48;;;;;;;24.48;12.25;;;11.60;99.90;;;;;;5029835;28;20208;-72
2021/10/03 07:07:14;;;;;;;19.98;12.20;;;11.60;99.90;;;;;;5067996;28;20208;-71
2021/10/03 07:09:40;;;;;;;25.13;12.70;;;12.10;99.90;;;;;;5066701;28;20260;-72
2021/10/03 07:12:06;;;;;;;26.77;13.27;;;12.20;99.90;;;;;;5068677;28;20251;-71
2021/10/03 07:14:32;;;;;;;21.27;11.38;;;12.50;99.90;;;;;;5068672;28;20184;-72
2021/10/03 07:16:58;;;;;;;21.92;11.93;;;12.50;99.90;;;;;;5068752;28;20516;-71
2021/10/03 07:19:24;;;;;;;17.98;9.68;;;12.80;99.90;;;;;;5067993;28;20185;-72
2021/10/03 07:21:50;;;;;;;23.63;10.23;;;13.20;99.90;;;;;;5068522;28;20231;-74
2021/10/03 07:24:16;;;;;;;19.15;11.10;;;13.50;99.90;;;;;;5068247;28;20165;-71
2021/10/03 07:26:42;;;;;;;19.45;11.73;;;14.00;99.90;;;;;;5068309;28;20244;-73
2021/10/03 07:29:08;;;;;;;18.50;11.07;;;14.10;99.90;;;;;;5067773;28;20211;-73
2021/10/03 07:31:34;;;;;;;19.85;9.88;;;13.60;99.90;;;;;;5068436;28;20520;-71
2021/10/03 07:34:01;;;;;;;16.48;10.40;;;14.40;99.90;;;;;;5068186;28;20624;-72
2021/10/03 07:36:27;;;;;;;18.55;10.40;;;15.60;99.90;;;;;;5050337;28;20215;-72
2021/10/03 07:38:53;;;;;;;14.75;10.73;;;16.30;99.90;;;;;;5067661;28;20192;-73
2021/10/03 07:41:20;;;;;;;16.13;9.80;;;16.60;99.90;;;;;;5068138;28;20565;-72
2021/10/03 07:43:48;;;;;;;13.73;9.55;;;17.90;99.90;;;;;;5067563;28;20287;-73
2021/10/03 07:46:16;;;;;;;16.58;10.82;;;18.50;99.90;;;;;;5067207;28;20167;-73
2021/10/03 07:48:42;;;;;;;13.70;9.52;;;18.70;99.90;;;;;;5067205;28;20211;-73
2021/10/03 07:51:10;;;;;;;12.43;8.73;;;19.00;99.90;;;;;;5068192;28;20179;-73
2021/10/03 07:53:37;;;;;;;13.80;9.63;;;18.60;99.90;;;;;;5068040;28;20212;-73
2021/10/03 07:56:04;;;;;;;14.60;9.20;;;18.00;99.90;;;;;;5067999;28;20173;-73
2021/10/03 07:58:30;;;;;;;15.35;9.93;;;16.80;99.90;;;;;;5068147;28;20173;-73
2021/10/03 08:00:56;;;;;;;19.38;9.73;;;16.70;99.90;;;;;;5067629;28;20199;-73
2021/10/03 08:03:21;;;;;;;14.27;9.65;;;17.50;99.90;;;;;;5049640;28;20161;-71
2021/10/03 08:05:48;;;;;;;15.88;9.45;;;18.80;99.90;;;;;;5067961;28;20307;-71
2021/10/03 08:08:14;;;;;;;12.85;9.20;;;18.00;99.90;;;;;;5067754;28;20252;-73
2021/10/03 08:10:41;;;;;;;14.57;10.18;;;17.70;99.90;;;;;;5067780;28;20192;-73
2021/10/03 08:13:07;;;;;;;13.82;9.05;;;18.20;99.90;;;;;;5067861;28;20173;-72
2021/10/03 08:15:35;;;;;;;15.10;9.75;;;18.10;99.90;;;;;;5049734;28;20164;-71
2021/10/03 08:18:04;;;;;;;13.40;8.77;;;18.10;99.90;;;;;;5067645;28;20187;-72
2021/10/03 08:20:31;;;;;;;13.52;9.35;;;18.50;99.90;;;;;;5067667;28;20258;-71
2021/10/03 08:22:57;;;;;;;11.95;8.15;;;19.10;99.90;;;;;;5048997;28;20179;-73
2021/10/03 08:25:22;;;;;;;14.13;9.02;;;19.50;99.90;;;;;;5067609;28;20160;-72
2021/10/03 08:27:48;;;;;;;11.82;8.55;;;19.70;99.90;;;;;;5049344;28;20665;-72
2021/10/03 08:30:15;;;;;;;13.70;9.20;;;19.40;99.90;;;;;;5067411;28;20156;-71
2021/10/03 08:32:42;;;;;;;14.93;10.25;;;19.30;99.90;;;;;;5067479;28;20202;-71
2021/10/03 08:35:09;;;;;;;15.30;9.43;;;19.50;99.90;;;;;;5067599;28;20149;-71
2021/10/03 08:37:37;;;;;;;14.00;9.23;;;18.50;99.90;;;;;;5049294;28;20168;-71
2021/10/03 08:40:06;;;;;;;12.10;8.95;;;18.70;99.90;;;;;;5067180;28;20584;-71
2021/10/03 08:42:33;;;;;;;14.68;9.32;;;18.40;99.90;;;;;;5067252;28;20163;-73
2021/10/03 08:45:00;;;;;;;15.93;9.13;;;18.00;99.90;;;;;;5067324;28;20235;-71
2021/10/03 08:47:26;;;;;;;11.13;7.53;;;18.20;99.90;;;;;;5049285;28;20196;-71
2021/10/03 08:49:57;;;;;;;11.90;8.27;;;19.70;99.90;;;;;;5067244;28;20169;-71
2021/10/03 08:52:25;;;;;;;9.93;7.93;;;18.30;99.90;;;;;;5066813;28;20669;-71
2021/10/03 08:54:53;;;;;;;11.65;7.60;;;19.20;99.90;;;;;;5067066;28;20204;-71
2021/10/03 08:57:20;;;;;;;12.07;7.63;;;19.00;99.90;;;;;;5048984;28;20184;-71
2021/10/03 09:00:19;;;;;;;10.43;7.18;;;18.50;99.90;;;;;;5048852;28;20218;-71
2021/10/03 09:03:04;;;;;;;8.38;6.78;;;18.80;99.90;;;;;;5067102;28;20160;-72
2021/10/03 09:05:33;;;;;;;10.55;7.00;;;19.10;99.90;;;;;;5029168;28;20197;-71
2021/10/03 09:08:25;;;;;;;10.98;7.25;;;20.30;99.90;;;;;;5047148;28;20665;-72
2021/10/03 09:11:05;;;;;;;11.50;7.22;;;21.00;99.90;;;;;;5044076;28;20259;-71
2021/10/03 09:13:31;;;;;;;10.20;7.18;;;21.10;99.90;;;;;;5047240;28;20187;-72
2021/10/03 09:16:14;;;;;;;12.80;7.43;;;19.80;99.90;;;;;;5047149;28;20196;-71
2021/10/03 09:18:49;;;;;;;10.13;6.75;;;20.20;99.90;;;;;;5047205;28;20160;-70
2021/10/03 09:21:30;;;;;;;14.77;7.68;;;19.20;99.90;;;;;;5046984;28;20221;-72
2021/10/03 09:23:59;;;;;;;10.68;7.03;;;18.80;99.90;;;;;;5047100;28;20169;-71
2021/10/03 09:26:26;;;;;;;13.05;7.38;;;19.60;99.90;;;;;;5046914;28;20188;-71
2021/10/03 09:28:52;;;;;;;9.73;7.13;;;19.60;99.90;;;;;;5045553;28;20165;-71
2021/10/03 09:31:21;;;;;;;9.30;6.68;;;20.30;99.90;;;;;;5045545;28;20192;-71
2021/10/03 09:33:48;;;;;;;9.25;6.47;;;20.70;99.90;;;;;;5049780;28;20149;-71
2021/10/03 09:36:17;;;;;;;8.20;6.60;;;21.10;99.90;;;;;;5032966;28;20176;-70
2021/10/03 09:38:46;;;;;;;9.98;5.88;;;20.80;99.90;;;;;;5050939;28;20207;-71
2021/10/03 09:41:13;;;;;;;8.05;6.05;;;21.40;99.90;;;;;;5050730;28;20220;-71
2021/10/03 09:43:46;;;;;;;7.43;5.10;;;20.60;99.90;;;;;;5032912;28;20165;-71
2021/10/03 09:46:32;;;;;;;7.65;5.82;;;21.00;99.90;;;;;;5050908;28;20306;-72
2021/10/03 09:48:59;;;;;;;8.07;4.65;;;20.10;99.90;;;;;;5050633;28;20157;-71
2021/10/03 09:51:26;;;;;;;7.55;5.10;;;19.30;99.90;;;;;;5032497;28;20212;-71
2021/10/03 09:53:52;;;;;;;10.02;6.65;;;20.10;99.90;;;;;;5050544;28;20165;-72
2021/10/03 09:56:18;;;;;;;7.93;6.03;;;20.50;99.90;;;;;;5050498;28;20598;-71
2021/10/03 09:58:46;;;;;;;7.18;5.35;;;21.10;99.90;;;;;;5051645;28;20243;-71
2021/10/03 10:01:13;;;;;;;5.90;4.15;;;21.00;99.90;;;;;;5070077;28;20211;-70
2021/10/03 10:03:40;;;;;;;5.82;4.78;;;21.20;99.90;;;;;;5070296;28;20167;-70
2021/10/03 10:06:07;;;;;;;6.22;4.07;;;20.90;99.90;;;;;;5070320;28;20156;-71
2021/10/03 10:08:39;;;;;;;5.90;4.72;;;20.50;99.90;;;;;;5051949;28;20196;-70
2021/10/03 10:11:26;;;;;;;5.25;3.78;;;20.80;99.90;;;;;;5070397;28;20279;-70
2021/10/03 10:13:57;;;;;;;6.93;5.00;;;21.00;99.90;;;;;;5070166;28;20159;-71
2021/10/03 10:16:34;;;;;;;4.55;3.92;;;21.50;99.90;;;;;;5070415;28;20145;-72
2021/10/03 10:19:25;;;;;;;5.30;4.40;;;21.10;99.90;;;;;;5070238;28;20160;-69
2021/10/03 10:22:18;;;;;;;5.35;4.13;;;21.60;99.90;;;;;;5070076;28;20192;-72
2021/10/03 10:24:45;;;;;;;6.50;4.72;;;21.70;99.90;;;;;;5069772;28;20172;-71
2021/10/03 10:27:29;;;;;;;7.32;4.50;;;22.40;99.90;;;;;;5069912;28;20180;-71
2021/10/03 10:30:11;;;;;;;6.00;4.22;;;22.80;99.90;;;;;;5070124;28;20153;-70
2021/10/03 10:32:55;;;;;;;6.78;4.20;;;22.30;99.90;;;;;;5069968;28;20319;-70
2021/10/03 10:35:21;;;;;;;7.88;4.30;;;22.40;99.90;;;;;;5069999;28;20174;-71
2021/10/03 10:37:51;;;;;;;8.90;6.45;;;23.20;99.90;;;;;;5070040;28;20226;-71
2021/10/03 10:43:01;;;;;;;7.00;4.43;;;23.70;99.90;;;;;;5067993;28;20165;-71
2021/10/03 10:45:27;;;;;;;5.28;3.80;;;24.00;99.90;;;;;;5068768;28;20228;-71
2021/10/03 10:48:11;;;;;;;6.55;3.72;;;25.40;99.90;;;;;;5069655;28;20215;-71
2021/10/03 10:50:48;;;;;;;4.25;3.75;;;25.10;99.90;;;;;;5069581;28;20251;-71
2021/10/03 10:53:30;;;;;;;5.35;4.05;;;25.80;99.90;;;;;;5051094;28;20238;-71
2021/10/03 10:56:17;;;;;;;4.93;4.03;;;26.90;99.90;;;;;;5069349;28;20171;-70
2021/10/03 10:58:49;;;;;;;4.13;3.63;;;28.10;99.90;;;;;;5069427;28;20156;-70
2021/10/03 11:01:15;;;;;;;7.68;3.80;;;27.10;99.90;;;;;;5069282;28;20214;-69
2021/10/03 11:03:41;;;;;;;4.45;3.58;;;26.20;99.90;;;;;;5069070;28;20576;-69
2021/10/03 11:06:12;;;;;;;6.82;3.72;;;27.20;99.90;;;;;;5069367;28;20165;-69
2021/10/03 11:08:56;;;;;;;4.95;3.72;;;27.40;99.90;;;;;;5069230;28;20204;-70
2021/10/03 11:11:30;;;;;;;4.63;3.40;;;25.90;99.90;;;;;;5069220;28;20179;-69
2021/10/03 11:13:58;;;;;;;5.30;3.35;;;25.80;99.90;;;;;;5068927;28;20184;-70
2021/10/03 11:16:46;;;;;;;3.65;3.08;;;24.90;99.90;;;;;;5068782;28;20239;-70
2021/10/03 11:19:21;;;;;;;5.25;3.17;;;25.30;99.90;;;;;;5068864;28;20241;-70
2021/10/03 11:22:00;;;;;;;4.95;2.83;;;25.10;99.90;;;;;;5069080;28;20191;-71
2021/10/03 11:24:55;;;;;;;5.32;3.28;;;24.80;99.90;;;;;;5068618;28;20188;-69
2021/10/03 11:27:27;;;;;;;4.15;3.15;;;24.50;99.90;;;;;;5050686;28;20286;-69
2021/10/03 11:29:55;;;;;;;4.75;2.58;;;24.40;99.90;;;;;;5068771;28;20186;-69
2021/10/03 11:32:30;;;;;;;3.53;2.95;;;25.50;99.90;;;;;;5068567;28;20182;-70
2021/10/03 11:35:02;;;;;;;2.92;2.63;;;26.00;99.90;;;;;;5068539;28;20210;-69
2021/10/03 11:37:44;;;;;;;5.38;2.65;;;26.10;99.90;;;;;;5068592;28;20310;-70
2021/10/03 11:40:16;;;;;;;3.75;2.55;;;26.80;99.90;;;;;;5068721;28;20214;-71
2021/10/03 11:42:49;;;;;;;3.00;1.83;;;26.30;99.90;;;;;;5068747;28;20220;-70
2021/10/03 11:45:35;;;;;;;2.67;2.30;;;26.40;99.90;;;;;;5068576;28;20164;-71
2021/10/03 11:48:08;;;;;;;2.90;2.20;;;26.50;99.90;;;;;;5050489;28;20196;-70
2021/10/03 11:50:48;;;;;;;2.95;1.83;;;27.10;99.90;;;;;;5068517;28;20267;-70
2021/10/03 11:53:25;;;;;;;2.33;2.00;;;27.00;99.80;;;;;;5068200;28;20294;-72
2021/10/03 11:56:04;;;;;;;3.28;2.30;;;27.10;99.60;;;;;;5067699;28;20202;-72
2021/10/03 11:58:35;;;;;;;2.30;2.08;;;27.10;99.90;;;;;;5068250;28;20164;-73
2021/10/03 12:01:01;;;;;;;2.92;2.20;;;26.80;99.50;;;;;;5076045;28;20239;-75
2021/10/03 12:03:33;;;;;;;2.40;1.98;;;27.30;98.90;;;;;;5083253;28;20558;-73
2021/10/03 12:06:14;;;;;;;3.33;2.35;;;27.20;99.10;;;;;;5068165;28;20158;-72
2021/10/03 12:08:40;;;;;;;5.50;1.85;;;26.60;99.10;;;;;;5068097;28;20271;-71
2021/10/03 12:11:06;;;;;;;3.53;2.30;;;26.30;99.50;;;;;;5068113;28;20163;-72
2021/10/03 12:13:34;;;;;;;2.55;1.92;;;25.10;99.90;;;;;;5068045;28;20188;-72
2021/10/03 12:16:03;;;;;;;1.73;1.40;;;24.70;99.90;;;;;;5068067;28;20198;-72
2021/10/03 12:18:29;;;;;;;3.92;2.17;;;24.20;99.90;;;;;;5067972;28;20156;-72
2021/10/03 12:20:57;;;;;;;2.00;1.85;;;24.00;99.90;;;;;;5067930;28;20250;-72
2021/10/03 12:23:42;;;;;;;4.20;2.00;;;23.90;99.90;;;;;;5067860;28;20195;-72
2021/10/03 12:26:26;;;;;;;4.55;2.20;;;23.80;99.90;;;;;;5067885;28;20148;-71
2021/10/03 12:29:05;;;;;;;2.20;1.50;;;23.60;99.90;;;;;;5067748;28;20161;-70
2021/10/03 12:31:39;;;;;;;1.42;1.33;;;23.60;99.90;;;;;;5067610;28;20171;-69
2021/10/03 12:34:13;;;;;;;2.72;1.70;;;23.60;99.90;;;;;;5067577;28;20209;-71
2021/10/03 12:36:55;;;;;;;6.20;2.10;;;23.70;99.90;;;;;;5067717;28;20164;-70
2021/10/03 12:39:22;;;;;;;2.50;1.90;;;23.80;99.90;;;;;;5067777;28;20578;-72
2021/10/03 12:41:53;;;;;;;2.28;1.65;;;23.90;99.90;;;;;;5067488;28;20220;-71
2021/10/03 12:44:27;;;;;;;2.13;1.52;;;23.80;99.90;;;;;;5067425;28;20758;-70
2021/10/03 12:46:54;;;;;;;2.95;1.67;;;23.80;99.90;;;;;;5067228;28;20184;-71
2021/10/03 12:49:21;;;;;;;2.95;1.77;;;23.90;99.90;;;;;;5067377;28;20180;-71